createdAt,value
2023-09-08T00:02:23.800Z,19.86
2023-09-08T00:04:54.565Z,19.72
2023-09-08T00:07:25.204Z,19.66
2023-09-08T00:09:56.665Z,19.68
2023-09-08T00:12:27.408Z,19.76
2023-09-08T00:14:58.103Z,19.80
2023-09-08T00:17:28.643Z,19.69
2023-09-08T00:19:59.819Z,19.74
2023-09-08T00:22:30.449Z,19.70
2023-09-08T00:25:01.358Z,19.61
2023-09-08T00:27:33.520Z,19.51
2023-09-08T00:30:06.573Z,19.47
2023-09-08T00:32:38.416Z,19.37
2023-09-08T00:35:09.470Z,19.29
2023-09-08T00:37:42.202Z,19.32
2023-09-08T00:40:13.266Z,19.29
2023-09-08T00:42:47.645Z,19.34
2023-09-08T00:45:18.301Z,19.53
2023-09-08T00:47:48.966Z,19.62
2023-09-08T00:50:20.959Z,19.55
2023-09-08T00:52:52.262Z,19.60
2023-09-08T00:55:25.229Z,19.57
2023-09-08T00:57:55.844Z,19.53
2023-09-08T01:00:26.794Z,19.49
2023-09-08T01:02:58.921Z,19.44
2023-09-08T01:05:29.653Z,19.42
2023-09-08T01:08:02.492Z,19.42
2023-09-08T01:10:33.281Z,19.42
2023-09-08T01:13:04.981Z,19.44
2023-09-08T01:15:35.693Z,19.34
2023-09-08T01:18:06.516Z,19.39
2023-09-08T01:20:52.196Z,19.38
2023-09-08T01:23:51.350Z,19.30
2023-09-08T01:26:27.395Z,19.29
2023-09-08T01:28:59.739Z,19.18
2023-09-08T01:31:30.740Z,19.14
2023-09-08T01:34:06.480Z,19.14
2023-09-08T01:36:37.543Z,19.14
2023-09-08T01:39:08.249Z,19.18
2023-09-08T01:41:38.985Z,19.29
2023-09-08T01:44:11.903Z,19.16
2023-09-08T01:46:42.612Z,19.15
2023-09-08T01:49:13.410Z,19.10
2023-09-08T01:51:46.593Z,19.04
2023-09-08T01:54:17.085Z,18.96
2023-09-08T01:56:47.677Z,18.97
2023-09-08T01:59:18.395Z,18.94
2023-09-08T02:01:48.946Z,18.92
2023-09-08T02:04:21.517Z,18.94
2023-09-08T02:06:52.213Z,18.90
2023-09-08T02:09:25.192Z,18.97
2023-09-08T02:11:57.866Z,18.96
2023-09-08T02:14:30.393Z,19.01
2023-09-08T02:17:00.984Z,18.98
2023-09-08T02:19:33.410Z,19.02
2023-09-08T02:22:03.998Z,19.01
2023-09-08T02:24:34.633Z,18.91
2023-09-08T02:27:06.730Z,18.93
2023-09-08T02:29:38.810Z,18.88
2023-09-08T02:32:09.361Z,18.88
2023-09-08T02:34:43.189Z,18.90
2023-09-08T02:37:16.074Z,18.91
2023-09-08T02:39:46.647Z,18.85
2023-09-08T02:42:17.646Z,18.84
2023-09-08T02:44:48.262Z,18.78
2023-09-08T02:47:19.882Z,18.72
2023-09-08T02:49:50.435Z,18.73
2023-09-08T02:52:22.102Z,18.71
2023-09-08T02:54:54.002Z,18.71
2023-09-08T02:57:24.686Z,18.80
2023-09-08T02:59:57.809Z,18.64
2023-09-08T03:02:31.381Z,18.63
2023-09-08T03:05:04.360Z,18.56
2023-09-08T03:07:36.513Z,18.58
2023-09-08T03:10:10.428Z,18.60
2023-09-08T03:12:42.096Z,18.58
2023-09-08T03:15:14.197Z,18.56
2023-09-08T03:17:48.055Z,18.46
2023-09-08T03:20:18.781Z,18.38
2023-09-08T03:22:49.341Z,18.40
2023-09-08T03:25:20.013Z,18.38
2023-09-08T03:27:50.647Z,18.28
2023-09-08T03:30:21.207Z,18.34
2023-09-08T03:32:51.863Z,18.34
2023-09-08T03:35:22.617Z,18.35
2023-09-08T03:37:53.174Z,18.31
2023-09-08T03:40:23.892Z,18.28
2023-09-08T03:42:54.483Z,18.28
2023-09-08T03:45:25.063Z,18.25
2023-09-08T03:47:55.804Z,18.20
2023-09-08T03:50:26.378Z,18.15
2023-09-08T03:52:57.951Z,18.16
2023-09-08T03:55:29.055Z,18.12
2023-09-08T03:57:59.856Z,18.22
2023-09-08T04:00:30.514Z,18.15
2023-09-08T04:03:01.022Z,18.15
2023-09-08T04:05:31.919Z,18.16
2023-09-08T04:08:02.455Z,18.10
2023-09-08T04:10:34.744Z,18.14
2023-09-08T04:13:05.532Z,18.04
2023-09-08T04:15:36.272Z,17.89
2023-09-08T04:18:08.416Z,17.94
2023-09-08T04:20:41.903Z,17.96
2023-09-08T04:23:12.730Z,17.95
2023-09-08T04:25:44.405Z,17.87
2023-09-08T04:28:16.435Z,17.80
2023-09-08T04:30:48.081Z,17.90
2023-09-08T04:33:19.282Z,17.88
2023-09-08T04:35:51.469Z,17.91
2023-09-08T04:38:24.775Z,17.88
2023-09-08T04:40:55.347Z,17.77
2023-09-08T04:43:26.842Z,17.88
2023-09-08T04:45:59.369Z,17.80
2023-09-08T04:48:31.275Z,17.80
2023-09-08T04:51:02.244Z,17.76
2023-09-08T04:53:34.188Z,17.76
2023-09-08T04:56:06.720Z,17.86
2023-09-08T04:58:39.242Z,17.96
2023-09-08T05:01:10.163Z,17.93
2023-09-08T05:03:40.862Z,17.84
2023-09-08T05:06:11.545Z,17.93
2023-09-08T05:08:42.498Z,17.90
2023-09-08T05:11:13.898Z,17.96
2023-09-08T05:13:45.228Z,18.69
2023-09-08T05:16:15.732Z,19.64
2023-09-08T05:18:46.455Z,20.18
2023-09-08T05:21:17.100Z,20.81
2023-09-08T05:23:48.188Z,21.52
2023-09-08T05:26:20.170Z,22.08
2023-09-08T05:28:53.548Z,22.00
2023-09-08T05:31:26.073Z,21.75
2023-09-08T05:33:57.212Z,22.22
2023-09-08T05:36:30.390Z,22.14
2023-09-08T05:39:02.076Z,22.26
2023-09-08T05:41:34.868Z,22.58
2023-09-08T05:44:06.785Z,22.30
2023-09-08T05:46:37.621Z,22.87
2023-09-08T05:49:10.856Z,23.15
2023-09-08T05:51:41.537Z,22.86
2023-09-08T05:54:12.432Z,22.72
2023-09-08T05:56:44.498Z,22.80
2023-09-08T05:59:15.319Z,23.16
2023-09-08T06:01:49.003Z,22.96
2023-09-08T06:04:19.647Z,22.50
2023-09-08T06:06:50.488Z,22.85
2023-09-08T06:09:22.709Z,21.40
2023-09-08T06:11:54.632Z,20.32
2023-09-08T06:14:26.774Z,19.60
2023-09-08T06:16:59.207Z,19.74
2023-09-08T06:19:29.797Z,19.35
2023-09-08T06:22:01.998Z,19.34
2023-09-08T06:24:34.624Z,19.10
2023-09-08T06:27:05.675Z,19.14
2023-09-08T06:29:37.198Z,19.15
2023-09-08T06:32:10.307Z,19.21
2023-09-08T06:34:41.222Z,19.28
2023-09-08T06:37:15.044Z,19.38
2023-09-08T06:39:45.920Z,19.39
2023-09-08T06:42:16.491Z,19.46
2023-09-08T06:44:47.029Z,19.51
2023-09-08T06:47:17.587Z,19.74
2023-09-08T06:49:48.424Z,19.70
2023-09-08T06:52:19.952Z,19.54
2023-09-08T06:54:50.403Z,19.65
2023-09-08T06:57:22.006Z,19.58
2023-09-08T06:59:55.295Z,19.63
2023-09-08T07:02:30.721Z,19.79
2023-09-08T07:05:05.122Z,19.85
2023-09-08T07:07:37.518Z,19.81
2023-09-08T07:10:10.403Z,19.99
2023-09-08T07:12:40.991Z,19.90
2023-09-08T07:15:13.279Z,20.11
2023-09-08T07:17:43.979Z,19.96
2023-09-08T07:20:15.700Z,19.96
2023-09-08T07:22:48.276Z,19.95
2023-09-08T07:25:21.171Z,20.14
2023-09-08T07:27:53.368Z,20.32
2023-09-08T07:30:24.077Z,20.48
2023-09-08T07:32:54.875Z,20.53
2023-09-08T07:35:25.510Z,20.66
2023-09-08T07:37:57.912Z,20.70
2023-09-08T07:40:28.840Z,20.87
2023-09-08T07:43:00.645Z,21.02
2023-09-08T07:45:35.561Z,21.06
2023-09-08T07:48:08.593Z,21.24
2023-09-08T07:50:39.623Z,21.37
2023-09-08T07:53:10.586Z,21.40
2023-09-08T07:55:42.930Z,21.51
2023-09-08T07:58:14.700Z,21.67
2023-09-08T08:00:45.372Z,21.74
2023-09-08T08:03:18.256Z,21.78
2023-09-08T08:05:49.583Z,21.86
2023-09-08T08:08:20.166Z,21.96
2023-09-08T08:10:53.378Z,22.03
2023-09-08T08:13:24.244Z,22.27
2023-09-08T08:15:56.358Z,22.39
2023-09-08T08:18:27.393Z,22.52
2023-09-08T08:21:01.583Z,22.69
2023-09-08T08:23:33.581Z,22.60
2023-09-08T08:26:05.954Z,22.62
2023-09-08T08:28:37.928Z,22.72
2023-09-08T08:31:08.997Z,22.80
2023-09-08T08:33:39.571Z,22.94
2023-09-08T08:36:10.903Z,22.99
2023-09-08T08:38:43.240Z,23.08
2023-09-08T08:41:14.185Z,23.10
2023-09-08T08:43:46.647Z,23.16
2023-09-08T08:46:21.425Z,23.23
2023-09-08T08:48:55.557Z,23.38
2023-09-08T08:51:27.128Z,23.36
2023-09-08T08:53:57.914Z,23.50
2023-09-08T08:56:28.962Z,23.46
2023-09-08T08:59:05.094Z,23.63
2023-09-08T09:01:37.304Z,23.69
2023-09-08T09:04:08.847Z,23.89
2023-09-08T09:06:43.038Z,23.79
2023-09-08T09:09:14.211Z,23.86
2023-09-08T09:11:44.974Z,23.88
2023-09-08T09:14:21.108Z,23.96
2023-09-08T09:16:52.455Z,24.08
2023-09-08T09:19:29.139Z,24.22
2023-09-08T09:22:01.042Z,24.25
2023-09-08T09:24:42.513Z,24.39
2023-09-08T09:27:15.617Z,24.34
2023-09-08T09:29:48.120Z,24.37
2023-09-08T09:32:22.232Z,24.49
2023-09-08T09:35:14.836Z,24.52
2023-09-08T09:37:48.022Z,24.50
2023-09-08T09:40:20.548Z,24.51
2023-09-08T09:42:52.504Z,24.55
2023-09-08T09:45:29.695Z,24.62
2023-09-08T09:48:00.869Z,24.86
2023-09-08T09:50:36.081Z,24.91
2023-09-08T09:53:15.014Z,24.96
2023-09-08T09:55:46.881Z,24.91
2023-09-08T09:58:17.995Z,25.07
2023-09-08T10:00:50.696Z,25.24
2023-09-08T10:03:22.526Z,24.96
2023-09-08T10:05:53.863Z,25.06
2023-09-08T10:08:27.447Z,25.08
2023-09-08T10:11:01.453Z,25.12
2023-09-08T10:13:37.105Z,25.21
2023-09-08T10:16:10.199Z,25.30
2023-09-08T10:18:45.479Z,25.38
2023-09-08T10:21:19.561Z,25.50
2023-09-08T10:23:55.150Z,25.65
2023-09-08T10:26:29.367Z,25.47
2023-09-08T10:29:03.516Z,25.64
2023-09-08T10:31:34.964Z,25.94
2023-09-08T10:34:07.810Z,26.06
2023-09-08T10:36:39.616Z,26.04
2023-09-08T10:39:32.228Z,26.05
2023-09-08T10:42:21.088Z,25.85
2023-09-08T10:44:54.862Z,25.95
2023-09-08T10:47:27.302Z,26.09
2023-09-08T10:50:01.081Z,26.01
2023-09-08T10:52:34.805Z,26.14
2023-09-08T10:55:07.813Z,26.28
2023-09-08T10:57:39.183Z,26.36
2023-09-08T11:00:14.667Z,26.12
2023-09-08T11:02:54.354Z,26.19
2023-09-08T11:05:25.069Z,26.11
2023-09-08T11:07:57.346Z,26.23
2023-09-08T11:10:27.919Z,26.18
2023-09-08T11:13:01.607Z,26.30
2023-09-08T11:15:34.705Z,26.33
2023-09-08T11:18:09.734Z,26.28
2023-09-08T11:20:41.016Z,26.38
2023-09-08T11:23:12.538Z,26.60
2023-09-08T11:25:44.761Z,26.61
2023-09-08T11:28:17.978Z,26.57
2023-09-08T11:30:52.341Z,26.64
2023-09-08T11:33:29.326Z,26.72
2023-09-08T11:35:59.885Z,26.76
2023-09-08T11:38:32.813Z,26.70
2023-09-08T11:41:09.728Z,26.74
2023-09-08T11:43:40.656Z,26.89
2023-09-08T11:46:12.509Z,26.94
2023-09-08T11:48:43.801Z,27.03
2023-09-08T11:51:16.789Z,26.80
2023-09-08T11:53:48.406Z,26.67
2023-09-08T11:56:18.987Z,26.67
2023-09-08T11:58:53.084Z,27.00
2023-09-08T12:01:24.185Z,26.95
2023-09-08T12:03:56.651Z,27.08
2023-09-08T12:06:31.850Z,27.18
2023-09-08T12:09:05.590Z,27.14
2023-09-08T12:11:38.655Z,27.02
2023-09-08T12:14:11.443Z,26.99
2023-09-08T12:16:46.927Z,26.98
2023-09-08T12:19:33.737Z,27.06
2023-09-08T12:22:08.507Z,27.14
2023-09-08T12:24:50.351Z,27.26
2023-09-08T12:27:23.168Z,27.22
2023-09-08T12:29:58.821Z,27.49
2023-09-08T12:32:32.853Z,27.31
2023-09-08T12:35:07.537Z,27.33
2023-09-08T12:37:41.331Z,27.39
2023-09-08T12:40:13.130Z,27.19
2023-09-08T12:42:47.840Z,27.11
2023-09-08T12:45:17.692Z,27.11
2023-09-08T12:47:48.261Z,27.32
2023-09-08T12:50:21.402Z,27.30
2023-09-08T12:52:52.214Z,27.40
2023-09-08T12:55:23.055Z,27.27
2023-09-08T12:57:58.501Z,27.43
2023-09-08T13:00:31.975Z,27.29
2023-09-08T13:03:04.826Z,27.39
2023-09-08T13:05:37.531Z,27.33
2023-09-08T13:08:08.702Z,27.35
2023-09-08T13:10:42.927Z,27.39
2023-09-08T13:13:14.790Z,27.54
2023-09-08T13:15:50.130Z,27.66
2023-09-08T13:18:23.273Z,27.56
2023-09-08T13:20:53.858Z,27.60
2023-09-08T13:23:28.426Z,27.54
2023-09-08T13:25:59.112Z,27.49
2023-09-08T13:28:29.628Z,27.47
2023-09-08T13:31:01.760Z,27.44
2023-09-08T13:33:32.463Z,27.51
2023-09-08T13:36:03.480Z,27.39
2023-09-08T13:38:34.776Z,27.30
2023-09-08T13:41:06.592Z,27.40
2023-09-08T13:43:43.408Z,27.45
2023-09-08T13:46:13.311Z,27.51
2023-09-08T13:48:46.175Z,27.45
2023-09-08T13:51:21.289Z,27.52
2023-09-08T13:53:54.468Z,27.53
2023-09-08T13:56:27.615Z,27.48
2023-09-08T13:59:03.401Z,27.62
2023-09-08T14:01:40.356Z,27.60
2023-09-08T14:04:10.843Z,27.68
2023-09-08T14:06:50.197Z,27.70
2023-09-08T14:14:26.464Z,27.70
2023-09-08T14:16:58.584Z,27.78
2023-09-08T14:19:29.129Z,27.74
2023-09-08T14:21:59.697Z,27.75
2023-09-08T14:24:30.453Z,27.75
2023-09-08T14:27:02.505Z,27.79
2023-09-08T14:29:38.017Z,27.86
2023-09-08T14:32:08.883Z,27.70
2023-09-08T14:34:39.591Z,27.67
2023-09-08T14:37:11.625Z,27.73
2023-09-08T14:39:42.423Z,27.81
2023-09-08T14:42:13.810Z,27.68
2023-09-08T14:44:44.752Z,27.71
2023-09-08T14:47:15.404Z,27.72
2023-09-08T14:49:45.980Z,27.84
2023-09-08T14:52:19.121Z,27.76
2023-09-08T14:54:49.890Z,27.79
2023-09-08T14:57:21.801Z,27.75
2023-09-08T14:59:54.380Z,27.79
2023-09-08T15:02:26.361Z,27.88
2023-09-08T15:04:57.414Z,27.72
2023-09-08T15:07:29.697Z,27.67
2023-09-08T15:10:03.711Z,27.72
2023-09-08T15:12:34.327Z,27.66
2023-09-08T15:15:05.600Z,27.73
2023-09-08T15:17:36.262Z,27.72
2023-09-08T15:20:07.962Z,27.70
2023-09-08T15:22:39.805Z,27.66
2023-09-08T15:25:12.717Z,27.64
2023-09-08T15:27:43.992Z,27.63
2023-09-08T15:30:18.684Z,27.67
2023-09-08T15:32:49.377Z,27.66
2023-09-08T15:35:21.863Z,27.53
2023-09-08T15:37:55.589Z,27.58
2023-09-08T15:40:27.812Z,27.60
2023-09-08T15:42:58.852Z,27.48
2023-09-08T15:45:30.793Z,27.38
2023-09-08T15:48:03.651Z,27.38
2023-09-08T15:50:34.989Z,27.38
2023-09-08T15:53:05.587Z,27.38
2023-09-08T15:55:37.681Z,27.23
2023-09-08T15:58:11.365Z,27.27
2023-09-08T16:00:43.530Z,27.27
2023-09-08T16:03:16.053Z,27.24
2023-09-08T16:05:54.957Z,27.24
2023-09-08T16:08:24.140Z,27.16
2023-09-08T16:10:55.367Z,27.13
2023-09-08T16:13:26.654Z,27.10
2023-09-08T16:15:57.612Z,26.91
2023-09-08T16:18:28.068Z,27.05
2023-09-08T16:20:58.630Z,27.06
2023-09-08T16:23:29.749Z,27.12
2023-09-08T16:26:00.858Z,27.04
2023-09-08T16:28:32.999Z,26.94
2023-09-08T16:31:15.622Z,26.85
2023-09-08T16:33:48.030Z,26.80
2023-09-08T16:36:18.616Z,26.64
2023-09-08T16:38:49.319Z,26.73
2023-09-08T16:41:20.010Z,26.77
2023-09-08T16:43:50.693Z,26.63
2023-09-08T16:46:21.965Z,26.58
2023-09-08T16:48:52.668Z,26.60
2023-09-08T16:51:24.039Z,26.61
2023-09-08T16:53:56.830Z,26.47
2023-09-08T16:56:27.980Z,26.40
2023-09-08T16:58:58.596Z,26.20
2023-09-08T17:01:29.296Z,25.98
2023-09-08T17:04:00.991Z,26.10
2023-09-08T17:06:32.084Z,26.14
2023-09-08T17:09:04.538Z,26.22
2023-09-08T17:11:36.805Z,26.22
2023-09-08T17:14:07.732Z,25.84
2023-09-08T17:16:40.636Z,25.57
2023-09-08T17:19:12.725Z,25.52
2023-09-08T17:21:46.834Z,25.37
2023-09-08T17:24:18.597Z,25.19
2023-09-08T17:26:50.831Z,25.03
2023-09-08T17:29:25.327Z,24.93
2023-09-08T17:31:58.027Z,24.74
2023-09-08T17:34:29.759Z,24.57
2023-09-08T17:37:06.474Z,24.52
2023-09-08T17:39:37.034Z,24.48
2023-09-08T17:42:07.849Z,24.46
2023-09-08T17:44:38.950Z,24.39
2023-09-08T17:47:12.680Z,24.21
2023-09-08T17:49:44.464Z,24.22
2023-09-08T17:52:15.159Z,24.17
2023-09-08T17:54:47.414Z,24.01
2023-09-08T17:57:19.521Z,24.03
2023-09-08T17:59:50.068Z,23.88
2023-09-08T18:02:20.786Z,23.76
2023-09-08T18:04:51.496Z,23.69
2023-09-08T18:07:24.796Z,23.62
2023-09-08T18:09:57.116Z,23.53
2023-09-08T18:12:27.727Z,23.48
2023-09-08T18:15:01.076Z,23.38
2023-09-08T18:17:32.542Z,23.26
2023-09-08T18:20:05.170Z,23.23
2023-09-08T18:22:35.804Z,23.23
2023-09-08T18:25:06.881Z,23.22
2023-09-08T18:27:40.040Z,23.18
2023-09-08T18:30:11.682Z,23.22
2023-09-08T18:32:46.910Z,23.33
2023-09-08T18:35:17.613Z,23.35
2023-09-08T18:37:48.393Z,23.38
2023-09-08T18:40:20.447Z,23.17
2023-09-08T18:42:51.168Z,23.11
2023-09-08T18:45:23.474Z,23.15
2023-09-08T18:47:55.122Z,23.02
2023-09-08T18:50:26.267Z,22.88
2023-09-08T18:52:57.851Z,22.86
2023-09-08T18:55:34.291Z,22.99
2023-09-08T18:58:08.631Z,22.94
2023-09-08T19:00:49.779Z,22.88
2023-09-08T19:03:23.842Z,22.82
2023-09-08T19:05:55.415Z,22.84
2023-09-08T19:08:26.967Z,22.72
2023-09-08T19:11:01.751Z,22.70
2023-09-08T19:13:50.874Z,22.78
2023-09-08T19:16:19.602Z,22.83
2023-09-08T19:18:54.911Z,22.98
2023-09-08T19:21:29.465Z,22.85
2023-09-08T19:24:00.410Z,22.95
2023-09-08T19:26:36.055Z,23.12
2023-09-08T19:29:09.280Z,23.32
2023-09-08T19:31:42.976Z,23.42
2023-09-08T19:34:20.875Z,23.43
2023-09-08T19:36:53.934Z,23.38
2023-09-08T19:39:27.990Z,23.43
2023-09-08T19:42:01.742Z,23.48
2023-09-08T19:44:35.144Z,23.58
2023-09-08T19:47:09.664Z,23.60
2023-09-08T19:49:43.264Z,23.56
2023-09-08T19:52:20.742Z,23.33
2023-09-08T19:54:56.619Z,23.23
2023-09-08T19:57:31.304Z,23.28
2023-09-08T20:00:04.396Z,23.27
2023-09-08T20:02:35.117Z,23.36
2023-09-08T20:05:06.379Z,23.33
2023-09-08T20:07:40.391Z,23.24
2023-09-08T20:10:12.902Z,23.22
2023-09-08T20:12:50.097Z,23.04
2023-09-08T20:15:28.142Z,23.12
2023-09-08T20:18:01.246Z,23.14
2023-09-08T20:20:32.784Z,23.02
2023-09-08T20:23:06.515Z,23.11
2023-09-08T20:25:37.991Z,23.16
2023-09-08T20:28:10.019Z,23.13
2023-09-08T20:30:42.457Z,23.04
2023-09-08T20:33:13.525Z,23.04
2023-09-08T20:35:46.262Z,23.00
2023-09-08T20:38:22.731Z,22.95
2023-09-08T20:41:01.956Z,22.89
2023-09-08T20:43:35.352Z,22.76
2023-09-08T20:46:10.133Z,22.72
2023-09-08T20:48:41.935Z,22.63
2023-09-08T20:51:19.806Z,22.65
2023-09-08T20:53:51.980Z,22.60
2023-09-08T20:56:26.730Z,22.60
2023-09-08T20:58:58.854Z,22.52
2023-09-08T21:01:31.399Z,22.45
2023-09-08T21:04:06.700Z,22.41
2023-09-08T21:06:37.428Z,22.26
2023-09-08T21:09:11.445Z,22.20
2023-09-08T21:11:42.344Z,22.08
2023-09-08T21:14:14.767Z,21.96
2023-09-08T21:16:45.398Z,21.77
2023-09-08T21:19:20.243Z,21.62
2023-09-08T21:21:51.482Z,21.48
2023-09-08T21:24:25.050Z,21.44
2023-09-08T21:26:57.474Z,21.35
2023-09-08T21:29:29.612Z,21.32
2023-09-08T21:32:01.567Z,21.41
2023-09-08T21:34:37.171Z,21.53
2023-09-08T21:37:08.714Z,21.40
2023-09-08T21:39:41.189Z,21.58
2023-09-08T21:42:17.014Z,21.63
2023-09-08T21:44:49.801Z,21.62
2023-09-08T21:47:24.519Z,21.53
2023-09-08T21:49:55.426Z,21.48
2023-09-08T21:52:37.671Z,21.56
2023-09-08T21:55:00.217Z,21.38
2023-09-08T21:57:33.202Z,21.52
2023-09-08T22:00:08.457Z,21.50
2023-09-08T22:02:42.806Z,21.50
2023-09-08T22:05:13.824Z,21.45
2023-09-08T22:07:46.436Z,21.47
2023-09-08T22:10:18.590Z,21.61
2023-09-08T22:12:53.991Z,21.45
2023-09-08T22:15:25.652Z,21.47
2023-09-08T22:17:56.680Z,21.42
2023-09-08T22:20:31.495Z,21.44
2023-09-08T22:23:01.843Z,21.35
2023-09-08T22:25:35.874Z,21.41
2023-09-08T22:28:09.120Z,21.32
2023-09-08T22:30:47.466Z,21.30
2023-09-08T22:33:21.756Z,21.30
2023-09-08T22:35:54.356Z,21.39
2023-09-08T22:38:24.863Z,21.24
2023-09-08T22:40:57.051Z,21.22
2023-09-08T22:43:30.933Z,21.20
2023-09-08T22:46:05.175Z,21.11
2023-09-08T22:48:39.029Z,21.16
2023-09-08T22:51:11.312Z,21.09
2023-09-08T22:53:42.096Z,21.04
2023-09-08T22:56:15.937Z,20.98
2023-09-08T22:58:46.747Z,20.96
2023-09-08T23:01:23.850Z,20.98
2023-09-08T23:03:51.131Z,20.95
2023-09-08T23:06:22.794Z,20.97
2023-09-08T23:08:58.370Z,20.95
2023-09-08T23:11:30.683Z,20.87
2023-09-08T23:14:02.053Z,20.86
2023-09-08T23:16:34.509Z,20.81
2023-09-08T23:19:08.845Z,20.76
2023-09-08T23:21:42.483Z,20.82
2023-09-08T23:24:14.874Z,20.80
2023-09-08T23:26:52.801Z,20.66
2023-09-08T23:29:25.370Z,20.62
2023-09-08T23:31:59.942Z,20.58
2023-09-08T23:34:34.218Z,20.58
2023-09-08T23:37:07.947Z,20.55
2023-09-08T23:39:42.101Z,20.54
2023-09-08T23:42:12.740Z,20.51
2023-09-08T23:44:43.568Z,20.42
2023-09-08T23:47:15.656Z,20.44
2023-09-08T23:49:48.706Z,20.40
2023-09-08T23:52:19.362Z,20.40
2023-09-08T23:54:50.102Z,20.46
2023-09-08T23:57:20.811Z,20.33
2023-09-08T23:59:52.802Z,20.28
